sensor_id;sensor_type;location;lat;lon;timestamp;temperature;humidity
28654;DHT22;24320;56.980;24.336;2023-04-16T00:02:02;6.70;84.60
28654;DHT22;24320;56.980;24.336;2023-04-16T00:04:29;6.80;84.10
28654;DHT22;24320;56.980;24.336;2023-04-16T00:06:56;6.80;84.10
28654;DHT22;24320;56.980;24.336;2023-04-16T00:09:23;6.90;83.60
28654;DHT22;24320;56.980;24.336;2023-04-16T00:11:50;7.00;83.20
28654;DHT22;24320;56.980;24.336;2023-04-16T00:14:17;7.00;83.20
28654;DHT22;24320;56.980;24.336;2023-04-16T00:16:44;7.10;82.70
28654;DHT22;24320;56.980;24.336;2023-04-16T00:19:11;7.10;81.70
28654;DHT22;24320;56.980;24.336;2023-04-16T00:21:39;7.20;81.30
28654;DHT22;24320;56.980;24.336;2023-04-16T00:24:06;7.20;80.50
28654;DHT22;24320;56.980;24.336;2023-04-16T00:26:33;7.30;81.60
28654;DHT22;24320;56.980;24.336;2023-04-16T00:29:00;7.30;81.30
28654;DHT22;24320;56.980;24.336;2023-04-16T00:31:28;7.20;81.00
28654;DHT22;24320;56.980;24.336;2023-04-16T00:33:56;7.30;80.30
28654;DHT22;24320;56.980;24.336;2023-04-16T00:36:24;7.30;80.40
28654;DHT22;24320;56.980;24.336;2023-04-16T00:38:53;7.30;80.60
28654;DHT22;24320;56.980;24.336;2023-04-16T00:41:20;7.30;80.60
28654;DHT22;24320;56.980;24.336;2023-04-16T00:43:49;7.30;79.80
28654;DHT22;24320;56.980;24.336;2023-04-16T00:46:18;7.30;80.00
28654;DHT22;24320;56.980;24.336;2023-04-16T00:48:46;7.30;80.00
28654;DHT22;24320;56.980;24.336;2023-04-16T00:51:13;7.30;79.80
28654;DHT22;24320;56.980;24.336;2023-04-16T00:53:40;7.30;80.10
28654;DHT22;24320;56.980;24.336;2023-04-16T00:56:08;7.30;80.30
28654;DHT22;24320;56.980;24.336;2023-04-16T00:58:37;7.30;80.60
28654;DHT22;24320;56.980;24.336;2023-04-16T01:01:04;7.30;80.90
28654;DHT22;24320;56.980;24.336;2023-04-16T01:03:43;7.30;80.80
28654;DHT22;24320;56.980;24.336;2023-04-16T01:06:12;7.30;79.50
28654;DHT22;24320;56.980;24.336;2023-04-16T01:08:39;7.30;80.10
28654;DHT22;24320;56.980;24.336;2023-04-16T01:11:07;7.30;79.70
28654;DHT22;24320;56.980;24.336;2023-04-16T01:13:34;7.30;79.70
28654;DHT22;24320;56.980;24.336;2023-04-16T01:16:06;7.30;80.10
28654;DHT22;24320;56.980;24.336;2023-04-16T01:18:34;7.30;80.30
28654;DHT22;24320;56.980;24.336;2023-04-16T01:21:02;7.20;80.50
28654;DHT22;24320;56.980;24.336;2023-04-16T01:23:30;7.20;80.50
28654;DHT22;24320;56.980;24.336;2023-04-16T01:25:57;7.20;80.40
28654;DHT22;24320;56.980;24.336;2023-04-16T01:28:24;7.20;79.90
28654;DHT22;24320;56.980;24.336;2023-04-16T01:30:51;7.30;79.60
28654;DHT22;24320;56.980;24.336;2023-04-16T01:33:18;7.30;79.60
28654;DHT22;24320;56.980;24.336;2023-04-16T01:35:45;7.30;79.20
28654;DHT22;24320;56.980;24.336;2023-04-16T01:38:12;7.30;79.00
28654;DHT22;24320;56.980;24.336;2023-04-16T01:40:39;7.30;79.20
28654;DHT22;24320;56.980;24.336;2023-04-16T01:43:06;7.30;79.00
28654;DHT22;24320;56.980;24.336;2023-04-16T01:45:34;7.30;78.80
28654;DHT22;24320;56.980;24.336;2023-04-16T01:48:03;7.30;78.60
28654;DHT22;24320;56.980;24.336;2023-04-16T01:50:30;7.30;78.90
28654;DHT22;24320;56.980;24.336;2023-04-16T01:52:57;7.30;78.60
28654;DHT22;24320;56.980;24.336;2023-04-16T01:55:24;7.30;78.40
28654;DHT22;24320;56.980;24.336;2023-04-16T01:57:52;7.20;78.90
28654;DHT22;24320;56.980;24.336;2023-04-16T02:00:19;7.20;79.10
28654;DHT22;24320;56.980;24.336;2023-04-16T02:02:46;7.20;79.10
28654;DHT22;24320;56.980;24.336;2023-04-16T02:05:15;7.20;80.20
28654;DHT22;24320;56.980;24.336;2023-04-16T02:07:42;7.20;79.20
28654;DHT22;24320;56.980;24.336;2023-04-16T02:10:09;7.20;79.40
28654;DHT22;24320;56.980;24.336;2023-04-16T02:12:36;7.10;79.70
28654;DHT22;24320;56.980;24.336;2023-04-16T02:15:04;7.10;79.80
28654;DHT22;24320;56.980;24.336;2023-04-16T02:17:31;7.00;79.70
28654;DHT22;24320;56.980;24.336;2023-04-16T02:19:58;7.00;79.10
28654;DHT22;24320;56.980;24.336;2023-04-16T02:22:25;7.10;79.40
28654;DHT22;24320;56.980;24.336;2023-04-16T02:24:52;7.10;79.60
28654;DHT22;24320;56.980;24.336;2023-04-16T02:27:19;7.10;79.60
28654;DHT22;24320;56.980;24.336;2023-04-16T02:29:46;7.10;80.10
28654;DHT22;24320;56.980;24.336;2023-04-16T02:32:13;7.10;79.20
28654;DHT22;24320;56.980;24.336;2023-04-16T02:34:40;7.10;79.50
28654;DHT22;24320;56.980;24.336;2023-04-16T02:37:08;7.10;79.30
28654;DHT22;24320;56.980;24.336;2023-04-16T02:39:35;7.10;79.70
28654;DHT22;24320;56.980;24.336;2023-04-16T02:42:02;7.10;80.10
28654;DHT22;24320;56.980;24.336;2023-04-16T02:44:29;7.10;80.90
28654;DHT22;24320;56.980;24.336;2023-04-16T02:46:56;7.10;81.50
28654;DHT22;24320;56.980;24.336;2023-04-16T02:49:23;7.10;81.30
28654;DHT22;24320;56.980;24.336;2023-04-16T02:51:50;7.00;81.40
28654;DHT22;24320;56.980;24.336;2023-04-16T02:54:17;7.00;81.10
28654;DHT22;24320;56.980;24.336;2023-04-16T02:56:43;7.00;81.40
28654;DHT22;24320;56.980;24.336;2023-04-16T02:59:11;7.10;81.30
28654;DHT22;24320;56.980;24.336;2023-04-16T03:01:38;7.10;81.10
28654;DHT22;24320;56.980;24.336;2023-04-16T03:04:05;7.10;81.00
28654;DHT22;24320;56.980;24.336;2023-04-16T03:06:32;7.10;80.40
28654;DHT22;24320;56.980;24.336;2023-04-16T03:08:59;7.10;79.70
28654;DHT22;24320;56.980;24.336;2023-04-16T03:11:26;7.20;80.40
28654;DHT22;24320;56.980;24.336;2023-04-16T03:13:53;7.20;80.00
28654;DHT22;24320;56.980;24.336;2023-04-16T03:16:20;7.20;80.20
28654;DHT22;24320;56.980;24.336;2023-04-16T03:18:47;7.10;80.50
28654;DHT22;24320;56.980;24.336;2023-04-16T03:21:14;7.20;80.40
28654;DHT22;24320;56.980;24.336;2023-04-16T03:23:41;7.20;81.10
28654;DHT22;24320;56.980;24.336;2023-04-16T03:26:08;7.20;81.20
28654;DHT22;24320;56.980;24.336;2023-04-16T03:28:35;7.10;81.30
28654;DHT22;24320;56.980;24.336;2023-04-16T03:31:02;7.10;81.70
28654;DHT22;24320;56.980;24.336;2023-04-16T03:33:29;7.10;82.20
28654;DHT22;24320;56.980;24.336;2023-04-16T03:35:57;7.10;81.90
28654;DHT22;24320;56.980;24.336;2023-04-16T03:38:25;7.20;81.40
28654;DHT22;24320;56.980;24.336;2023-04-16T03:40:52;7.20;81.60
28654;DHT22;24320;56.980;24.336;2023-04-16T03:43:19;7.20;81.80
28654;DHT22;24320;56.980;24.336;2023-04-16T03:45:46;7.20;81.60
28654;DHT22;24320;56.980;24.336;2023-04-16T03:48:13;7.20;82.20
28654;DHT22;24320;56.980;24.336;2023-04-16T03:50:45;7.20;82.30
28654;DHT22;24320;56.980;24.336;2023-04-16T03:53:13;7.20;82.30
28654;DHT22;24320;56.980;24.336;2023-04-16T03:55:41;7.20;81.70
28654;DHT22;24320;56.980;24.336;2023-04-16T03:58:08;7.20;82.10
28654;DHT22;24320;56.980;24.336;2023-04-16T04:00:35;7.20;82.50
28654;DHT22;24320;56.980;24.336;2023-04-16T04:03:02;7.20;82.40
28654;DHT22;24320;56.980;24.336;2023-04-16T04:05:30;7.20;82.00
28654;DHT22;24320;56.980;24.336;2023-04-16T04:07:57;7.20;82.30
28654;DHT22;24320;56.980;24.336;2023-04-16T04:10:24;7.20;82.60
28654;DHT22;24320;56.980;24.336;2023-04-16T04:12:51;7.30;82.20
28654;DHT22;24320;56.980;24.336;2023-04-16T04:15:18;7.30;81.50
28654;DHT22;24320;56.980;24.336;2023-04-16T04:17:45;7.30;81.90
28654;DHT22;24320;56.980;24.336;2023-04-16T04:20:12;7.40;83.00
28654;DHT22;24320;56.980;24.336;2023-04-16T04:22:39;7.30;82.80
28654;DHT22;24320;56.980;24.336;2023-04-16T04:25:08;7.40;83.20
28654;DHT22;24320;56.980;24.336;2023-04-16T04:27:35;7.40;84.30
28654;DHT22;24320;56.980;24.336;2023-04-16T04:30:03;7.40;85.90
28654;DHT22;24320;56.980;24.336;2023-04-16T04:32:30;7.30;86.90
28654;DHT22;24320;56.980;24.336;2023-04-16T04:35:00;7.30;88.10
28654;DHT22;24320;56.980;24.336;2023-04-16T04:37:27;7.20;89.10
28654;DHT22;24320;56.980;24.336;2023-04-16T04:39:54;7.20;89.40
28654;DHT22;24320;56.980;24.336;2023-04-16T04:42:21;7.20;90.10
28654;DHT22;24320;56.980;24.336;2023-04-16T04:44:48;7.20;90.60
28654;DHT22;24320;56.980;24.336;2023-04-16T04:47:15;7.10;90.60
28654;DHT22;24320;56.980;24.336;2023-04-16T04:49:42;7.10;91.30
28654;DHT22;24320;56.980;24.336;2023-04-16T04:52:09;7.00;92.00
28654;DHT22;24320;56.980;24.336;2023-04-16T04:54:37;6.90;92.00
28654;DHT22;24320;56.980;24.336;2023-04-16T04:57:07;6.80;92.30
28654;DHT22;24320;56.980;24.336;2023-04-16T04:59:34;6.80;92.70
28654;DHT22;24320;56.980;24.336;2023-04-16T05:02:01;6.80;92.60
28654;DHT22;24320;56.980;24.336;2023-04-16T05:04:29;6.80;92.60
28654;DHT22;24320;56.980;24.336;2023-04-16T05:06:57;6.80;92.90
28654;DHT22;24320;56.980;24.336;2023-04-16T05:09:23;6.90;92.70
28654;DHT22;24320;56.980;24.336;2023-04-16T05:11:51;6.90;93.00
28654;DHT22;24320;56.980;24.336;2023-04-16T05:14:18;7.00;93.10
28654;DHT22;24320;56.980;24.336;2023-04-16T05:16:45;7.00;93.00
28654;DHT22;24320;56.980;24.336;2023-04-16T05:19:12;7.20;93.00
28654;DHT22;24320;56.980;24.336;2023-04-16T05:21:39;7.30;93.10
28654;DHT22;24320;56.980;24.336;2023-04-16T05:24:06;7.50;92.80
28654;DHT22;24320;56.980;24.336;2023-04-16T05:26:33;7.60;92.60
28654;DHT22;24320;56.980;24.336;2023-04-16T05:29:01;7.70;92.40
28654;DHT22;24320;56.980;24.336;2023-04-16T05:31:28;7.80;92.00
28654;DHT22;24320;56.980;24.336;2023-04-16T05:33:55;7.90;91.30
28654;DHT22;24320;56.980;24.336;2023-04-16T05:36:22;7.90;90.90
28654;DHT22;24320;56.980;24.336;2023-04-16T05:38:49;7.90;90.70
28654;DHT22;24320;56.980;24.336;2023-04-16T05:41:16;8.00;90.90
28654;DHT22;24320;56.980;24.336;2023-04-16T05:43:43;8.10;90.60
28654;DHT22;24320;56.980;24.336;2023-04-16T05:46:10;8.30;90.50
28654;DHT22;24320;56.980;24.336;2023-04-16T05:48:37;8.50;90.90
28654;DHT22;24320;56.980;24.336;2023-04-16T05:51:04;8.70;90.10
28654;DHT22;24320;56.980;24.336;2023-04-16T05:53:32;8.80;90.10
28654;DHT22;24320;56.980;24.336;2023-04-16T05:55:58;9.00;90.30
28654;DHT22;24320;56.980;24.336;2023-04-16T05:58:25;9.20;89.00
28654;DHT22;24320;56.980;24.336;2023-04-16T06:00:53;9.20;87.50
28654;DHT22;24320;56.980;24.336;2023-04-16T06:03:20;9.20;88.20
28654;DHT22;24320;56.980;24.336;2023-04-16T06:05:47;9.20;87.00
28654;DHT22;24320;56.980;24.336;2023-04-16T06:08:14;9.20;87.80
28654;DHT22;24320;56.980;24.336;2023-04-16T06:10:41;9.30;89.50
28654;DHT22;24320;56.980;24.336;2023-04-16T06:13:08;9.40;86.20
28654;DHT22;24320;56.980;24.336;2023-04-16T06:15:35;9.40;86.40
28654;DHT22;24320;56.980;24.336;2023-04-16T06:18:02;9.50;88.00
28654;DHT22;24320;56.980;24.336;2023-04-16T06:20:29;9.70;88.90
28654;DHT22;24320;56.980;24.336;2023-04-16T06:22:56;10.00;86.30
28654;DHT22;24320;56.980;24.336;2023-04-16T06:25:23;10.10;87.50
28654;DHT22;24320;56.980;24.336;2023-04-16T06:27:50;10.40;87.40
28654;DHT22;24320;56.980;24.336;2023-04-16T06:30:18;10.50;86.30
28654;DHT22;24320;56.980;24.336;2023-04-16T06:32:45;10.60;84.80
28654;DHT22;24320;56.980;24.336;2023-04-16T06:35:12;10.60;85.80
28654;DHT22;24320;56.980;24.336;2023-04-16T06:37:39;10.60;84.90
28654;DHT22;24320;56.980;24.336;2023-04-16T06:40:07;10.50;86.80
28654;DHT22;24320;56.980;24.336;2023-04-16T06:42:34;10.30;85.50
28654;DHT22;24320;56.980;24.336;2023-04-16T06:45:02;10.40;87.50
28654;DHT22;24320;56.980;24.336;2023-04-16T06:47:29;10.50;87.10
28654;DHT22;24320;56.980;24.336;2023-04-16T06:49:56;10.60;86.50
28654;DHT22;24320;56.980;24.336;2023-04-16T06:52:23;10.60;85.80
28654;DHT22;24320;56.980;24.336;2023-04-16T06:54:50;10.40;84.50
28654;DHT22;24320;56.980;24.336;2023-04-16T06:57:17;10.10;85.00
28654;DHT22;24320;56.980;24.336;2023-04-16T06:59:44;9.90;86.20
28654;DHT22;24320;56.980;24.336;2023-04-16T07:02:11;9.80;87.10
28654;DHT22;24320;56.980;24.336;2023-04-16T07:04:39;9.80;87.60
28654;DHT22;24320;56.980;24.336;2023-04-16T07:07:07;9.80;87.40
28654;DHT22;24320;56.980;24.336;2023-04-16T07:09:34;9.90;89.30
28654;DHT22;24320;56.980;24.336;2023-04-16T07:12:01;9.80;87.90
28654;DHT22;24320;56.980;24.336;2023-04-16T07:14:28;9.80;88.30
28654;DHT22;24320;56.980;24.336;2023-04-16T07:16:55;9.70;88.10
28654;DHT22;24320;56.980;24.336;2023-04-16T07:19:22;9.70;88.80
28654;DHT22;24320;56.980;24.336;2023-04-16T07:21:49;9.60;86.40
28654;DHT22;24320;56.980;24.336;2023-04-16T07:24:16;9.40;87.70
28654;DHT22;24320;56.980;24.336;2023-04-16T07:26:43;9.30;88.30
28654;DHT22;24320;56.980;24.336;2023-04-16T07:29:09;9.10;88.80
28654;DHT22;24320;56.980;24.336;2023-04-16T07:31:37;9.00;89.00
28654;DHT22;24320;56.980;24.336;2023-04-16T07:34:04;9.10;90.00
28654;DHT22;24320;56.980;24.336;2023-04-16T07:36:31;8.90;91.40
28654;DHT22;24320;56.980;24.336;2023-04-16T07:38:58;8.70;93.20
28654;DHT22;24320;56.980;24.336;2023-04-16T07:41:26;8.50;93.30
28654;DHT22;24320;56.980;24.336;2023-04-16T07:43:53;8.30;94.60
28654;DHT22;24320;56.980;24.336;2023-04-16T07:46:20;8.20;95.80
28654;DHT22;24320;56.980;24.336;2023-04-16T07:48:48;8.10;95.50
28654;DHT22;24320;56.980;24.336;2023-04-16T07:51:15;8.30;96.40
28654;DHT22;24320;56.980;24.336;2023-04-16T07:53:43;8.30;96.50
28654;DHT22;24320;56.980;24.336;2023-04-16T07:56:10;8.20;96.50
28654;DHT22;24320;56.980;24.336;2023-04-16T07:58:37;8.20;97.30
28654;DHT22;24320;56.980;24.336;2023-04-16T08:01:04;8.20;97.80
28654;DHT22;24320;56.980;24.336;2023-04-16T08:03:31;8.30;98.20
28654;DHT22;24320;56.980;24.336;2023-04-16T08:05:58;8.40;98.10
28654;DHT22;24320;56.980;24.336;2023-04-16T08:08:25;8.60;98.80
28654;DHT22;24320;56.980;24.336;2023-04-16T08:10:52;8.80;98.40
28654;DHT22;24320;56.980;24.336;2023-04-16T08:13:22;9.00;96.60
28654;DHT22;24320;56.980;24.336;2023-04-16T08:15:49;9.00;96.50
28654;DHT22;24320;56.980;24.336;2023-04-16T08:18:17;9.00;97.60
28654;DHT22;24320;56.980;24.336;2023-04-16T08:20:47;9.30;96.70
28654;DHT22;24320;56.980;24.336;2023-04-16T08:23:25;9.50;96.20
28654;DHT22;24320;56.980;24.336;2023-04-16T08:25:53;9.70;96.20
28654;DHT22;24320;56.980;24.336;2023-04-16T08:28:20;9.70;95.80
28654;DHT22;24320;56.980;24.336;2023-04-16T08:30:47;9.70;96.00
28654;DHT22;24320;56.980;24.336;2023-04-16T08:33:14;9.70;96.10
28654;DHT22;24320;56.980;24.336;2023-04-16T08:35:41;9.70;96.50
28654;DHT22;24320;56.980;24.336;2023-04-16T08:38:08;9.70;96.20
28654;DHT22;24320;56.980;24.336;2023-04-16T08:40:37;9.80;96.70
28654;DHT22;24320;56.980;24.336;2023-04-16T08:43:12;9.80;96.30
28654;DHT22;24320;56.980;24.336;2023-04-16T08:45:40;9.80;96.10
28654;DHT22;24320;56.980;24.336;2023-04-16T08:48:10;9.60;96.40
28654;DHT22;24320;56.980;24.336;2023-04-16T08:50:37;9.40;96.80
28654;DHT22;24320;56.980;24.336;2023-04-16T08:53:10;9.30;97.20
28654;DHT22;24320;56.980;24.336;2023-04-16T08:55:39;9.10;97.80
28654;DHT22;24320;56.980;24.336;2023-04-16T08:58:11;8.90;97.70
28654;DHT22;24320;56.980;24.336;2023-04-16T09:00:39;8.80;98.30
28654;DHT22;24320;56.980;24.336;2023-04-16T09:03:09;8.80;99.50
28654;DHT22;24320;56.980;24.336;2023-04-16T09:05:37;8.90;98.50
28654;DHT22;24320;56.980;24.336;2023-04-16T09:08:05;8.90;98.70
28654;DHT22;24320;56.980;24.336;2023-04-16T09:10:33;9.00;98.60
28654;DHT22;24320;56.980;24.336;2023-04-16T09:13:00;9.00;98.50
28654;DHT22;24320;56.980;24.336;2023-04-16T09:15:27;9.10;98.60
28654;DHT22;24320;56.980;24.336;2023-04-16T09:17:55;9.20;98.30
28654;DHT22;24320;56.980;24.336;2023-04-16T09:20:23;9.10;97.50
28654;DHT22;24320;56.980;24.336;2023-04-16T09:22:50;9.10;97.80
28654;DHT22;24320;56.980;24.336;2023-04-16T09:25:40;9.00;97.60
28654;DHT22;24320;56.980;24.336;2023-04-16T09:28:42;8.80;97.80
28654;DHT22;24320;56.980;24.336;2023-04-16T09:31:15;8.90;98.00
28654;DHT22;24320;56.980;24.336;2023-04-16T09:33:59;8.90;97.80
28654;DHT22;24320;56.980;24.336;2023-04-16T09:36:26;8.90;97.90
28654;DHT22;24320;56.980;24.336;2023-04-16T09:38:54;8.90;98.80
28654;DHT22;24320;56.980;24.336;2023-04-16T09:41:28;9.00;98.50
28654;DHT22;24320;56.980;24.336;2023-04-16T09:43:59;9.00;98.20
28654;DHT22;24320;56.980;24.336;2023-04-16T09:46:34;9.00;97.90
28654;DHT22;24320;56.980;24.336;2023-04-16T09:49:08;9.00;98.10
28654;DHT22;24320;56.980;24.336;2023-04-16T09:51:37;9.10;98.40
28654;DHT22;24320;56.980;24.336;2023-04-16T09:54:04;9.20;98.30
28654;DHT22;24320;56.980;24.336;2023-04-16T09:56:32;9.10;97.50
28654;DHT22;24320;56.980;24.336;2023-04-16T09:59:18;9.00;98.50
28654;DHT22;24320;56.980;24.336;2023-04-16T10:01:45;8.90;98.30
28654;DHT22;24320;56.980;24.336;2023-04-16T10:04:12;8.80;98.50
28654;DHT22;24320;56.980;24.336;2023-04-16T10:06:40;8.70;98.60
28654;DHT22;24320;56.980;24.336;2023-04-16T10:09:08;8.60;98.90
28654;DHT22;24320;56.980;24.336;2023-04-16T10:11:36;8.70;98.70
28654;DHT22;24320;56.980;24.336;2023-04-16T10:14:04;8.70;99.60
28654;DHT22;24320;56.980;24.336;2023-04-16T10:16:31;8.80;98.80
28654;DHT22;24320;56.980;24.336;2023-04-16T10:18:58;8.80;99.10
28654;DHT22;24320;56.980;24.336;2023-04-16T10:21:26;8.90;99.00
28654;DHT22;24320;56.980;24.336;2023-04-16T10:24:21;9.00;99.20
28654;DHT22;24320;56.980;24.336;2023-04-16T10:26:49;9.10;97.80
28654;DHT22;24320;56.980;24.336;2023-04-16T10:29:19;9.20;98.40
28654;DHT22;24320;56.980;24.336;2023-04-16T10:31:47;9.20;97.80
28654;DHT22;24320;56.980;24.336;2023-04-16T10:34:15;9.20;98.00
28654;DHT22;24320;56.980;24.336;2023-04-16T10:36:47;9.20;97.90
28654;DHT22;24320;56.980;24.336;2023-04-16T10:39:19;9.00;97.70
28654;DHT22;24320;56.980;24.336;2023-04-16T10:41:46;8.90;98.10
28654;DHT22;24320;56.980;24.336;2023-04-16T10:44:17;8.80;98.20
28654;DHT22;24320;56.980;24.336;2023-04-16T10:46:48;8.80;98.60
28654;DHT22;24320;56.980;24.336;2023-04-16T10:54:26;9.00;98.20
28654;DHT22;24320;56.980;24.336;2023-04-16T10:56:56;9.10;99.00
28654;DHT22;24320;56.980;24.336;2023-04-16T10:59:25;9.20;98.80
28654;DHT22;24320;56.980;24.336;2023-04-16T11:01:58;9.40;98.20
28654;DHT22;24320;56.980;24.336;2023-04-16T11:04:37;9.50;98.00
28654;DHT22;24320;56.980;24.336;2023-04-16T11:10:03;10.00;97.50
28654;DHT22;24320;56.980;24.336;2023-04-16T11:12:41;10.10;97.20
28654;DHT22;24320;56.980;24.336;2023-04-16T11:17:47;10.50;96.30
28654;DHT22;24320;56.980;24.336;2023-04-16T11:20:21;10.60;96.20
28654;DHT22;24320;56.980;24.336;2023-04-16T11:22:53;10.50;96.50
28654;DHT22;24320;56.980;24.336;2023-04-16T11:25:21;10.50;96.60
28654;DHT22;24320;56.980;24.336;2023-04-16T11:27:50;10.50;96.00
28654;DHT22;24320;56.980;24.336;2023-04-16T11:30:18;10.40;96.50
28654;DHT22;24320;56.980;24.336;2023-04-16T11:32:53;10.50;96.40
28654;DHT22;24320;56.980;24.336;2023-04-16T11:35:20;10.40;96.40
28654;DHT22;24320;56.980;24.336;2023-04-16T11:37:47;10.40;96.20
28654;DHT22;24320;56.980;24.336;2023-04-16T11:40:15;10.30;96.10
28654;DHT22;24320;56.980;24.336;2023-04-16T11:42:42;10.20;96.60
28654;DHT22;24320;56.980;24.336;2023-04-16T11:45:11;10.20;96.90
28654;DHT22;24320;56.980;24.336;2023-04-16T11:47:46;10.20;97.20
28654;DHT22;24320;56.980;24.336;2023-04-16T11:50:24;10.20;97.60
28654;DHT22;24320;56.980;24.336;2023-04-16T11:52:52;10.20;97.30
28654;DHT22;24320;56.980;24.336;2023-04-16T11:55:20;10.10;97.10
28654;DHT22;24320;56.980;24.336;2023-04-16T11:57:48;9.90;97.90
28654;DHT22;24320;56.980;24.336;2023-04-16T12:00:17;9.80;98.50
28654;DHT22;24320;56.980;24.336;2023-04-16T12:02:52;9.80;98.70
28654;DHT22;24320;56.980;24.336;2023-04-16T12:07:59;9.90;99.50
28654;DHT22;24320;56.980;24.336;2023-04-16T12:10:26;9.90;99.20
28654;DHT22;24320;56.980;24.336;2023-04-16T12:12:53;9.90;99.80
28654;DHT22;24320;56.980;24.336;2023-04-16T12:15:20;9.80;99.80
28654;DHT22;24320;56.980;24.336;2023-04-16T12:17:47;9.70;99.90
28654;DHT22;24320;56.980;24.336;2023-04-16T12:20:16;9.60;99.90
28654;DHT22;24320;56.980;24.336;2023-04-16T12:22:47;9.50;99.90
28654;DHT22;24320;56.980;24.336;2023-04-16T12:25:16;9.40;99.90
28654;DHT22;24320;56.980;24.336;2023-04-16T12:30:21;9.50;99.90
28654;DHT22;24320;56.980;24.336;2023-04-16T12:32:51;9.50;99.90
28654;DHT22;24320;56.980;24.336;2023-04-16T12:35:29;9.40;99.90
28654;DHT22;24320;56.980;24.336;2023-04-16T12:37:57;9.40;99.90
28654;DHT22;24320;56.980;24.336;2023-04-16T12:40:24;9.40;99.90
28654;DHT22;24320;56.980;24.336;2023-04-16T12:42:51;9.40;99.90
28654;DHT22;24320;56.980;24.336;2023-04-16T12:45:18;9.40;99.90
28654;DHT22;24320;56.980;24.336;2023-04-16T12:47:45;9.50;99.90
28654;DHT22;24320;56.980;24.336;2023-04-16T12:50:13;9.50;99.90
28654;DHT22;24320;56.980;24.336;2023-04-16T12:52:40;9.50;99.90
28654;DHT22;24320;56.980;24.336;2023-04-16T12:55:07;9.40;99.90
28654;DHT22;24320;56.980;24.336;2023-04-16T12:57:38;9.30;99.90
28654;DHT22;24320;56.980;24.336;2023-04-16T13:00:06;9.20;99.90
28654;DHT22;24320;56.980;24.336;2023-04-16T13:02:36;9.30;99.90
28654;DHT22;24320;56.980;24.336;2023-04-16T13:05:04;9.20;99.90
28654;DHT22;24320;56.980;24.336;2023-04-16T13:07:31;9.20;99.90
28654;DHT22;24320;56.980;24.336;2023-04-16T13:10:00;9.20;99.90
28654;DHT22;24320;56.980;24.336;2023-04-16T13:12:27;9.20;99.90
28654;DHT22;24320;56.980;24.336;2023-04-16T13:14:56;9.20;99.90
28654;DHT22;24320;56.980;24.336;2023-04-16T13:17:23;9.30;99.90
28654;DHT22;24320;56.980;24.336;2023-04-16T13:19:51;9.20;99.90
28654;DHT22;24320;56.980;24.336;2023-04-16T13:22:18;9.30;99.90
28654;DHT22;24320;56.980;24.336;2023-04-16T13:24:45;9.20;99.90
28654;DHT22;24320;56.980;24.336;2023-04-16T13:27:12;9.20;99.90
28654;DHT22;24320;56.980;24.336;2023-04-16T13:29:41;9.20;99.90
28654;DHT22;24320;56.980;24.336;2023-04-16T13:32:08;9.20;99.90
28654;DHT22;24320;56.980;24.336;2023-04-16T13:34:36;9.10;99.90
28654;DHT22;24320;56.980;24.336;2023-04-16T13:37:02;9.10;99.90
28654;DHT22;24320;56.980;24.336;2023-04-16T13:39:30;9.00;99.90
28654;DHT22;24320;56.980;24.336;2023-04-16T13:41:57;8.90;99.90
28654;DHT22;24320;56.980;24.336;2023-04-16T13:44:24;8.80;99.90
28654;DHT22;24320;56.980;24.336;2023-04-16T13:46:51;8.80;99.90
28654;DHT22;24320;56.980;24.336;2023-04-16T13:49:18;8.70;99.90
28654;DHT22;24320;56.980;24.336;2023-04-16T13:51:45;8.70;99.90
28654;DHT22;24320;56.980;24.336;2023-04-16T13:54:12;8.70;99.90
28654;DHT22;24320;56.980;24.336;2023-04-16T13:56:39;8.70;99.90
28654;DHT22;24320;56.980;24.336;2023-04-16T13:59:07;8.70;99.90
28654;DHT22;24320;56.980;24.336;2023-04-16T14:01:34;8.70;99.90
28654;DHT22;24320;56.980;24.336;2023-04-16T14:04:01;8.70;99.90
28654;DHT22;24320;56.980;24.336;2023-04-16T14:06:33;8.70;99.90
28654;DHT22;24320;56.980;24.336;2023-04-16T14:09:00;8.60;99.90
28654;DHT22;24320;56.980;24.336;2023-04-16T14:11:27;8.60;99.90
28654;DHT22;24320;56.980;24.336;2023-04-16T14:13:54;8.60;99.90
28654;DHT22;24320;56.980;24.336;2023-04-16T14:16:21;8.60;99.90
28654;DHT22;24320;56.980;24.336;2023-04-16T14:18:49;8.50;99.90
28654;DHT22;24320;56.980;24.336;2023-04-16T14:21:17;8.50;99.90
28654;DHT22;24320;56.980;24.336;2023-04-16T14:23:44;8.50;99.90
28654;DHT22;24320;56.980;24.336;2023-04-16T14:26:12;8.50;99.90
28654;DHT22;24320;56.980;24.336;2023-04-16T14:28:40;8.50;99.90
28654;DHT22;24320;56.980;24.336;2023-04-16T14:31:07;8.50;99.90
28654;DHT22;24320;56.980;24.336;2023-04-16T14:33:34;8.50;99.90
28654;DHT22;24320;56.980;24.336;2023-04-16T14:36:02;8.40;99.90
28654;DHT22;24320;56.980;24.336;2023-04-16T14:38:30;8.30;99.90
28654;DHT22;24320;56.980;24.336;2023-04-16T14:40:57;8.30;99.90
28654;DHT22;24320;56.980;24.336;2023-04-16T14:43:26;8.30;99.90
28654;DHT22;24320;56.980;24.336;2023-04-16T14:45:53;8.30;99.90
28654;DHT22;24320;56.980;24.336;2023-04-16T14:48:20;8.30;99.90
28654;DHT22;24320;56.980;24.336;2023-04-16T14:50:47;8.20;99.90
28654;DHT22;24320;56.980;24.336;2023-04-16T14:53:14;8.20;99.90
28654;DHT22;24320;56.980;24.336;2023-04-16T14:55:42;8.20;99.90
28654;DHT22;24320;56.980;24.336;2023-04-16T14:58:08;8.20;99.90
28654;DHT22;24320;56.980;24.336;2023-04-16T15:00:36;8.20;99.90
28654;DHT22;24320;56.980;24.336;2023-04-16T15:03:04;8.10;99.90
28654;DHT22;24320;56.980;24.336;2023-04-16T15:05:31;8.20;99.90
28654;DHT22;24320;56.980;24.336;2023-04-16T15:07:59;8.20;99.90
28654;DHT22;24320;56.980;24.336;2023-04-16T15:10:26;8.20;99.90
28654;DHT22;24320;56.980;24.336;2023-04-16T15:12:54;8.20;99.90
28654;DHT22;24320;56.980;24.336;2023-04-16T15:15:21;8.30;99.90
28654;DHT22;24320;56.980;24.336;2023-04-16T15:17:48;8.20;99.90
28654;DHT22;24320;56.980;24.336;2023-04-16T15:20:17;8.20;99.90
28654;DHT22;24320;56.980;24.336;2023-04-16T15:22:44;8.20;99.90
28654;DHT22;24320;56.980;24.336;2023-04-16T15:25:11;8.20;99.90
28654;DHT22;24320;56.980;24.336;2023-04-16T15:27:39;8.20;99.90
28654;DHT22;24320;56.980;24.336;2023-04-16T15:30:06;8.20;99.90
28654;DHT22;24320;56.980;24.336;2023-04-16T15:32:34;8.20;99.90
28654;DHT22;24320;56.980;24.336;2023-04-16T15:35:02;8.10;99.90
28654;DHT22;24320;56.980;24.336;2023-04-16T15:37:30;8.10;99.90
28654;DHT22;24320;56.980;24.336;2023-04-16T15:39:57;8.10;99.90
28654;DHT22;24320;56.980;24.336;2023-04-16T15:42:24;8.10;99.90
28654;DHT22;24320;56.980;24.336;2023-04-16T15:44:52;8.00;99.90
28654;DHT22;24320;56.980;24.336;2023-04-16T15:47:22;8.00;99.90
28654;DHT22;24320;56.980;24.336;2023-04-16T15:49:51;8.00;99.90
28654;DHT22;24320;56.980;24.336;2023-04-16T15:52:18;8.00;99.90